createdAt,value
2023-04-29T00:02:58.608Z,7.65
2023-04-29T00:06:02.134Z,8.35
2023-04-29T00:09:04.874Z,7.68
2023-04-29T00:12:07.703Z,8.43
2023-04-29T00:15:10.921Z,8.25
2023-04-29T00:18:14.467Z,12.75
2023-04-29T00:21:17.285Z,11.20
2023-04-29T00:24:20.435Z,16.33
2023-04-29T00:27:23.068Z,16.38
2023-04-29T00:30:25.961Z,19.58
2023-04-29T00:33:28.798Z,16.45
2023-04-29T00:36:32.759Z,16.00
2023-04-29T00:39:35.464Z,17.90
2023-04-29T00:42:40.516Z,10.80
2023-04-29T00:45:43.948Z,12.00
2023-04-29T00:48:46.687Z,13.00
2023-04-29T00:51:50.362Z,9.98
2023-04-29T00:54:53.015Z,13.38
2023-04-29T00:57:56.419Z,10.30
2023-04-29T01:01:00.810Z,9.15
2023-04-29T01:04:05.715Z,6.20
2023-04-29T01:07:18.477Z,7.40
2023-04-29T01:10:30.129Z,7.60
2023-04-29T01:13:40.440Z,6.28
2023-04-29T01:16:49.556Z,8.95
2023-04-29T01:19:57.977Z,6.63
2023-04-29T01:23:01.555Z,10.18
2023-04-29T01:26:06.221Z,8.98
2023-04-29T01:29:51.631Z,10.00
2023-04-29T01:33:04.918Z,5.97
2023-04-29T01:36:46.996Z,7.60
2023-04-29T01:40:17.566Z,8.00
2023-04-29T01:43:34.516Z,10.77
2023-04-29T01:46:54.248Z,5.60
2023-04-29T01:50:00.380Z,8.93
2023-04-29T01:53:03.190Z,8.38
2023-04-29T01:56:07.388Z,6.82
2023-04-29T02:02:42.653Z,11.52
2023-04-29T02:05:59.884Z,9.93
2023-04-29T02:09:02.955Z,9.93
2023-04-29T02:12:08.069Z,9.18
2023-04-29T02:15:10.902Z,10.52
2023-04-29T02:18:13.651Z,9.98
2023-04-29T02:21:16.734Z,11.98
2023-04-29T02:24:19.649Z,11.43
2023-04-29T02:27:24.056Z,8.05
2023-04-29T02:30:26.911Z,9.30
2023-04-29T02:33:30.336Z,10.07
2023-04-29T02:36:33.005Z,9.52
2023-04-29T02:39:35.949Z,8.82
2023-04-29T02:42:38.899Z,10.32
2023-04-29T02:45:42.871Z,7.50
2023-04-29T02:51:50.276Z,8.52
2023-04-29T02:54:53.685Z,8.45
2023-04-29T02:57:56.431Z,7.80
2023-04-29T03:00:59.284Z,5.60
2023-04-29T03:04:02.412Z,8.88
2023-04-29T03:07:05.740Z,7.38
2023-04-29T03:10:09.349Z,6.32
2023-04-29T03:13:15.803Z,9.57
2023-04-29T03:16:20.003Z,7.55
2023-04-29T03:19:22.917Z,6.63
2023-04-29T03:22:27.034Z,5.70
2023-04-29T03:25:30.517Z,7.28
2023-04-29T03:28:36.465Z,7.57
2023-04-29T03:31:39.426Z,14.27
2023-04-29T03:34:42.438Z,12.05
2023-04-29T03:37:56.398Z,13.25
2023-04-29T03:41:04.689Z,14.23
2023-04-29T03:44:07.828Z,14.98
2023-04-29T03:47:10.601Z,13.23
2023-04-29T03:50:13.596Z,9.35
2023-04-29T03:53:17.658Z,11.10
2023-04-29T03:56:20.911Z,14.80
2023-04-29T03:59:23.682Z,14.75
2023-04-29T04:02:28.114Z,12.45
2023-04-29T04:05:31.564Z,16.48
2023-04-29T04:08:41.765Z,17.70
2023-04-29T04:11:51.177Z,12.68
2023-04-29T04:14:55.859Z,13.25
2023-04-29T04:17:58.629Z,10.35
2023-04-29T04:21:06.852Z,10.50
2023-04-29T04:24:12.081Z,7.85
2023-04-29T04:27:15.205Z,13.80
2023-04-29T04:33:26.981Z,13.45
2023-04-29T04:36:29.817Z,17.35
2023-04-29T04:39:33.175Z,17.70
2023-04-29T04:42:36.525Z,16.50
2023-04-29T04:45:39.394Z,13.48
2023-04-29T04:48:43.506Z,13.07
2023-04-29T04:54:52.160Z,11.85
2023-04-29T04:57:59.647Z,13.82
2023-04-29T05:01:03.151Z,13.15
2023-04-29T05:04:06.261Z,12.45
2023-04-29T05:07:09.529Z,11.68
2023-04-29T05:10:33.739Z,14.48
2023-04-29T05:13:37.872Z,17.70
2023-04-29T05:16:40.930Z,14.07
2023-04-29T05:19:44.256Z,16.50
2023-04-29T05:22:47.832Z,13.85
2023-04-29T05:25:51.185Z,14.15
2023-04-29T05:28:54.338Z,10.57
2023-04-29T05:31:59.689Z,9.95
2023-04-29T05:35:03.725Z,8.00
2023-04-29T05:38:08.128Z,11.95
2023-04-29T05:41:17.072Z,10.57
2023-04-29T05:44:23.479Z,13.35
2023-04-29T05:47:26.494Z,10.52
2023-04-29T05:50:29.412Z,8.30
2023-04-29T05:53:33.612Z,12.15
2023-04-29T05:56:36.472Z,7.63
2023-04-29T05:59:39.591Z,9.27
2023-04-29T06:02:51.049Z,8.88
2023-04-29T06:06:01.451Z,10.05
2023-04-29T06:09:27.874Z,10.55
2023-04-29T06:12:35.072Z,8.93
2023-04-29T06:15:37.980Z,9.15
2023-04-29T06:18:41.828Z,8.05
2023-04-29T06:21:44.721Z,7.82
2023-04-29T06:24:50.020Z,9.93
2023-04-29T06:28:08.309Z,9.88
2023-04-29T06:31:11.254Z,8.98
2023-04-29T06:34:14.353Z,7.45
2023-04-29T06:37:37.993Z,9.88
2023-04-29T06:41:01.381Z,9.43
2023-04-29T06:44:36.921Z,11.07
2023-04-29T06:47:59.902Z,8.82
2023-04-29T06:51:14.437Z,13.30
2023-04-29T06:54:17.340Z,9.48
2023-04-29T06:57:21.269Z,8.60
2023-04-29T07:00:24.212Z,8.18
2023-04-29T07:03:31.046Z,8.55
2023-04-29T07:06:34.051Z,7.93
2023-04-29T07:09:37.235Z,8.98
2023-04-29T07:12:40.485Z,8.95
2023-04-29T07:15:43.516Z,9.52
2023-04-29T07:18:46.399Z,8.30
2023-04-29T07:21:49.300Z,9.98
2023-04-29T07:24:56.076Z,10.05
2023-04-29T07:27:58.960Z,13.25
2023-04-29T07:31:01.848Z,9.85
2023-04-29T07:34:04.978Z,25.52
2023-04-29T07:37:07.856Z,10.63
2023-04-29T07:40:10.910Z,12.00
2023-04-29T07:43:14.372Z,11.05
2023-04-29T07:46:18.576Z,7.70
2023-04-29T07:49:21.337Z,11.48
2023-04-29T07:52:24.156Z,9.85
2023-04-29T07:55:27.702Z,8.20
2023-04-29T07:58:32.667Z,8.93
2023-04-29T08:01:35.787Z,7.78
2023-04-29T08:04:42.848Z,14.07
2023-04-29T08:07:52.084Z,9.38
2023-04-29T08:10:54.938Z,7.68
2023-04-29T08:14:00.569Z,11.15
2023-04-29T08:17:06.807Z,7.78
2023-04-29T08:20:09.969Z,10.60
2023-04-29T08:23:13.105Z,9.25
2023-04-29T08:26:16.067Z,6.43
2023-04-29T08:29:18.839Z,7.38
2023-04-29T08:32:21.534Z,9.77
2023-04-29T08:35:24.348Z,12.35
2023-04-29T08:38:27.543Z,8.32
2023-04-29T08:41:33.002Z,7.28
2023-04-29T08:44:37.138Z,7.75
2023-04-29T08:47:40.402Z,8.73
2023-04-29T08:50:43.683Z,9.85
2023-04-29T08:53:46.785Z,8.00
2023-04-29T08:56:49.591Z,7.80
2023-04-29T08:59:52.483Z,13.23
2023-04-29T09:02:57.075Z,9.48
2023-04-29T09:06:01.542Z,9.88
2023-04-29T09:09:04.712Z,7.60
2023-04-29T09:12:09.673Z,9.23
2023-04-29T09:15:12.488Z,10.27
2023-04-29T09:18:48.218Z,8.88
2023-04-29T09:21:57.492Z,11.93
2023-04-29T09:25:13.190Z,11.48
2023-04-29T09:28:17.254Z,12.93
2023-04-29T09:31:28.294Z,12.77
2023-04-29T09:34:33.086Z,9.80
2023-04-29T09:37:35.879Z,8.18
2023-04-29T09:40:54.483Z,13.35
2023-04-29T09:44:08.964Z,9.98
2023-04-29T09:47:13.575Z,7.55
2023-04-29T09:50:18.433Z,9.77
2023-04-29T09:53:30.245Z,9.93
2023-04-29T09:56:49.903Z,6.72
2023-04-29T09:59:52.740Z,7.75
2023-04-29T10:02:59.488Z,10.50
2023-04-29T10:06:06.835Z,7.35
2023-04-29T10:09:15.924Z,9.60
2023-04-29T10:12:20.703Z,11.38
2023-04-29T10:15:37.921Z,10.15
2023-04-29T10:18:42.590Z,9.98
2023-04-29T10:21:47.186Z,9.00
2023-04-29T10:24:52.796Z,8.77
2023-04-29T10:27:56.406Z,6.95
2023-04-29T10:31:06.154Z,13.95
2023-04-29T10:34:09.055Z,7.25
2023-04-29T10:37:12.785Z,12.80
2023-04-29T10:40:31.098Z,8.80
2023-04-29T10:43:34.030Z,7.50
2023-04-29T10:46:38.338Z,8.93
2023-04-29T10:49:41.685Z,10.32
2023-04-29T10:52:58.229Z,10.02
2023-04-29T10:56:06.697Z,16.08
2023-04-29T10:59:18.857Z,7.03
2023-04-29T11:02:21.966Z,11.02
2023-04-29T11:05:32.625Z,8.88
2023-04-29T11:08:41.505Z,6.90
2023-04-29T11:11:53.155Z,8.75
2023-04-29T11:15:05.214Z,7.65
2023-04-29T11:18:16.420Z,10.80
2023-04-29T11:21:21.091Z,7.82
2023-04-29T11:24:31.535Z,12.13
2023-04-29T11:27:43.057Z,8.20
2023-04-29T11:30:47.234Z,10.82
2023-04-29T11:33:50.335Z,8.35
2023-04-29T11:36:54.173Z,7.97
2023-04-29T11:40:03.875Z,9.77
2023-04-29T11:43:19.677Z,9.50
2023-04-29T11:46:22.723Z,10.88
2023-04-29T11:49:31.934Z,8.40
2023-04-29T11:52:40.742Z,10.38
2023-04-29T11:55:44.072Z,10.27
2023-04-29T11:58:47.462Z,14.07
2023-04-29T12:01:51.344Z,11.00
2023-04-29T12:04:59.183Z,12.15
2023-04-29T12:08:02.390Z,13.25
2023-04-29T12:11:08.001Z,9.50
2023-04-29T12:14:11.666Z,6.43
2023-04-29T12:17:18.629Z,6.28
2023-04-29T12:20:24.714Z,8.43
2023-04-29T12:23:28.135Z,6.27
2023-04-29T12:26:36.356Z,7.45
2023-04-29T12:29:43.211Z,7.15
2023-04-29T12:32:50.098Z,9.80
2023-04-29T12:35:59.980Z,10.13
2023-04-29T12:39:13.753Z,13.57
2023-04-29T12:42:20.000Z,9.85
2023-04-29T12:45:34.679Z,8.63
2023-04-29T12:48:45.037Z,7.18
2023-04-29T12:51:54.333Z,7.15
2023-04-29T12:54:58.695Z,7.75
2023-04-29T12:58:06.261Z,9.70
2023-04-29T13:01:18.880Z,8.07
2023-04-29T13:04:32.823Z,8.55
2023-04-29T13:07:39.714Z,8.98
2023-04-29T13:10:53.692Z,20.13
2023-04-29T13:17:04.830Z,8.37
2023-04-29T13:20:15.252Z,9.85
2023-04-29T13:23:26.289Z,8.25
2023-04-29T13:26:36.672Z,8.55
2023-04-29T13:29:39.723Z,12.40
2023-04-29T13:32:49.787Z,10.40
2023-04-29T13:36:00.175Z,8.70
2023-04-29T13:39:11.426Z,11.52
2023-04-29T13:42:18.555Z,10.43
2023-04-29T13:45:21.705Z,7.20
2023-04-29T13:49:10.236Z,7.95
2023-04-29T14:02:14.957Z,7.90
2023-04-29T14:04:49.225Z,9.85
2023-04-29T14:07:54.969Z,7.05
2023-04-29T14:10:58.953Z,7.85
2023-04-29T14:14:06.217Z,5.55
2023-04-29T14:17:10.069Z,9.52
2023-04-29T14:20:16.761Z,6.28
2023-04-29T14:23:20.018Z,6.35
2023-04-29T14:26:28.281Z,6.00
2023-04-29T14:29:31.885Z,6.75
2023-04-29T14:32:34.780Z,8.85
2023-04-29T14:35:37.685Z,6.05
2023-04-29T14:38:40.820Z,6.68
2023-04-29T14:41:43.631Z,5.82
2023-04-29T14:44:46.399Z,6.82
2023-04-29T14:47:49.282Z,6.72
2023-04-29T14:50:52.172Z,7.85
2023-04-29T14:53:54.924Z,6.18
2023-04-29T14:56:57.822Z,6.82
2023-04-29T15:00:00.681Z,7.97
2023-04-29T15:03:05.430Z,9.43
2023-04-29T15:06:08.572Z,10.77
2023-04-29T15:09:11.275Z,5.57
2023-04-29T15:12:16.993Z,5.18
2023-04-29T15:15:20.467Z,5.22
2023-04-29T15:18:26.802Z,6.22
2023-04-29T15:21:30.559Z,3.78
2023-04-29T15:24:33.581Z,5.28
2023-04-29T15:27:37.383Z,6.80
2023-04-29T15:30:40.135Z,6.28
2023-04-29T15:33:43.305Z,6.85
2023-04-29T15:36:46.557Z,6.80
2023-04-29T15:39:49.266Z,4.70
2023-04-29T15:42:52.293Z,8.98
2023-04-29T15:45:56.423Z,11.07
2023-04-29T15:48:59.421Z,7.57
2023-04-29T15:52:02.652Z,9.48
2023-04-29T15:55:06.711Z,7.47
2023-04-29T15:58:09.461Z,6.38
2023-04-29T16:01:12.545Z,9.70
2023-04-29T16:04:15.318Z,6.90
2023-04-29T16:07:18.770Z,9.73
2023-04-29T16:10:21.992Z,9.20
2023-04-29T16:13:24.994Z,6.80
2023-04-29T16:16:28.162Z,8.20
2023-04-29T16:19:31.015Z,7.55
2023-04-29T16:22:36.273Z,10.65
2023-04-29T16:25:40.879Z,10.80
2023-04-29T16:28:43.778Z,9.75
2023-04-29T16:31:47.212Z,8.85
2023-04-29T16:34:50.477Z,7.30
2023-04-29T16:37:53.760Z,7.13
2023-04-29T16:40:56.790Z,7.05
2023-04-29T16:43:59.904Z,9.85
2023-04-29T16:47:03.484Z,5.35
2023-04-29T16:50:08.755Z,6.38
2023-04-29T16:53:15.833Z,8.60
2023-04-29T16:56:19.443Z,9.52
2023-04-29T16:59:22.460Z,9.30
2023-04-29T17:02:25.880Z,10.27
2023-04-29T17:05:29.138Z,13.65
2023-04-29T17:08:32.396Z,10.98
2023-04-29T17:11:35.313Z,10.70
2023-04-29T17:14:40.251Z,11.13
2023-04-29T17:17:43.500Z,9.10
2023-04-29T17:20:48.115Z,19.38
2023-04-29T17:23:53.777Z,17.43
2023-04-29T17:26:56.821Z,17.65
2023-04-29T17:29:59.980Z,20.20
2023-04-29T17:33:09.206Z,15.32
2023-04-29T17:36:15.153Z,9.32
2023-04-29T17:39:18.110Z,14.80
2023-04-29T17:42:24.276Z,7.53
2023-04-29T17:45:27.151Z,8.17
2023-04-29T17:48:30.311Z,7.20
2023-04-29T17:51:36.110Z,5.75
2023-04-29T17:54:40.466Z,20.48
2023-04-29T17:57:43.400Z,18.00
2023-04-29T18:00:46.742Z,13.77
2023-04-29T18:03:51.779Z,10.68
2023-04-29T18:06:54.702Z,10.43
2023-04-29T18:09:57.923Z,8.93
2023-04-29T18:13:03.812Z,6.25
2023-04-29T18:16:08.262Z,9.48
2023-04-29T18:19:11.465Z,6.93
2023-04-29T18:22:14.352Z,8.40
2023-04-29T18:25:17.668Z,6.22
2023-04-29T18:28:25.397Z,8.68
2023-04-29T18:31:30.911Z,11.60
2023-04-29T18:34:33.838Z,9.38
2023-04-29T18:37:36.684Z,16.85
2023-04-29T18:40:39.812Z,14.40
2023-04-29T18:43:42.567Z,5.50
2023-04-29T18:46:45.522Z,6.25
2023-04-29T18:49:48.679Z,7.18
2023-04-29T18:52:51.488Z,6.55
2023-04-29T18:55:54.580Z,7.53
2023-04-29T18:58:57.983Z,10.05
2023-04-29T19:02:01.316Z,6.57
2023-04-29T19:05:07.053Z,11.07
2023-04-29T19:08:10.032Z,4.30
2023-04-29T19:11:13.017Z,6.72
2023-04-29T19:14:15.883Z,5.53
2023-04-29T19:17:18.766Z,8.65
2023-04-29T19:20:21.660Z,9.27
2023-04-29T19:23:24.622Z,6.65
2023-04-29T19:26:27.599Z,6.63
2023-04-29T19:29:30.329Z,18.60
2023-04-29T19:32:33.288Z,11.32
2023-04-29T19:35:36.170Z,5.95
2023-04-29T19:38:39.077Z,16.90
2023-04-29T19:41:42.085Z,5.68
2023-04-29T19:44:45.205Z,8.00
2023-04-29T19:47:50.311Z,5.38
2023-04-29T19:50:53.408Z,7.20
2023-04-29T19:53:56.976Z,5.65
2023-04-29T19:57:00.270Z,6.38
2023-04-29T20:00:04.585Z,7.28
2023-04-29T20:03:09.048Z,9.67
2023-04-29T20:06:12.110Z,11.43
2023-04-29T20:09:16.010Z,5.47
2023-04-29T20:12:18.983Z,5.13
2023-04-29T20:15:22.025Z,4.93
2023-04-29T20:18:24.957Z,7.43
2023-04-29T20:21:28.132Z,4.63
2023-04-29T20:24:31.075Z,5.18
2023-04-29T20:27:34.052Z,5.22
2023-04-29T20:30:37.204Z,5.82
2023-04-29T20:33:40.015Z,6.28
2023-04-29T20:36:42.959Z,23.35
2023-04-29T20:39:46.965Z,39.75
2023-04-29T20:42:50.051Z,23.52
2023-04-29T20:45:53.147Z,11.60
2023-04-29T20:48:56.026Z,7.93
2023-04-29T20:52:00.280Z,6.90
2023-04-29T20:55:03.407Z,33.38
2023-04-29T20:58:06.361Z,13.63
2023-04-29T21:01:09.465Z,5.93
2023-04-29T21:04:12.321Z,8.63
2023-04-29T21:07:15.196Z,19.90
2023-04-29T21:10:18.309Z,12.70
2023-04-29T21:13:21.102Z,10.50
2023-04-29T21:16:23.864Z,23.15
2023-04-29T21:19:26.790Z,25.40
2023-04-29T21:22:29.599Z,10.68
2023-04-29T21:25:32.293Z,10.98
2023-04-29T21:28:35.098Z,16.65
2023-04-29T21:31:37.922Z,10.02
2023-04-29T21:34:41.027Z,33.67
2023-04-29T21:37:46.096Z,13.70
2023-04-29T21:40:48.973Z,26.27
2023-04-29T21:43:53.417Z,25.35
2023-04-29T21:46:57.132Z,53.22
2023-04-29T21:50:01.005Z,61.67
2023-04-29T21:53:03.884Z,100.22
2023-04-29T21:56:07.262Z,123.82
2023-04-29T21:59:09.967Z,52.83
2023-04-29T22:02:22.353Z,32.85
2023-04-29T22:05:25.548Z,15.43
2023-04-29T22:08:28.376Z,8.75
2023-04-29T22:11:31.401Z,14.00
2023-04-29T22:14:34.226Z,14.38
2023-04-29T22:17:37.065Z,12.65
2023-04-29T22:20:39.868Z,7.72
2023-04-29T22:23:43.128Z,9.55
2023-04-29T22:26:46.802Z,27.10
2023-04-29T22:29:50.051Z,23.75
2023-04-29T22:32:52.841Z,19.42
2023-04-29T22:35:55.772Z,15.93
2023-04-29T22:38:59.098Z,14.82
2023-04-29T22:42:04.962Z,20.65
2023-04-29T22:45:08.556Z,21.23
2023-04-29T22:48:11.271Z,13.10
2023-04-29T22:51:14.107Z,14.82
2023-04-29T22:54:16.928Z,11.35
2023-04-29T22:57:19.755Z,12.27
2023-04-29T23:00:22.687Z,10.90
2023-04-29T23:03:25.837Z,14.35
2023-04-29T23:06:29.002Z,13.48
2023-04-29T23:09:32.008Z,13.13
2023-04-29T23:12:35.033Z,12.27
2023-04-29T23:15:37.961Z,19.23
2023-04-29T23:18:41.070Z,18.13
2023-04-29T23:21:44.131Z,15.25
2023-04-29T23:24:47.012Z,15.65
2023-04-29T23:27:49.804Z,11.95
2023-04-29T23:30:52.693Z,12.95
2023-04-29T23:33:55.691Z,11.90
2023-04-29T23:36:58.840Z,12.73
2023-04-29T23:40:01.701Z,14.90
2023-04-29T23:43:04.685Z,11.95
2023-04-29T23:46:07.459Z,15.65
2023-04-29T23:49:10.932Z,12.18
2023-04-29T23:52:13.870Z,12.40
2023-04-29T23:55:16.646Z,14.82
2023-04-29T23:58:19.567Z,11.57
